createdAt,value
2024-03-10T00:00:17.817Z,100253.34
2024-03-10T00:03:07.984Z,100261.09
2024-03-10T00:05:36.996Z,100253.38
2024-03-10T00:08:05.397Z,100257.84
2024-03-10T00:10:38.822Z,100254.72
2024-03-10T00:13:07.095Z,100250.31
2024-03-10T00:15:34.794Z,100258.88
2024-03-10T00:18:02.821Z,100257.91
2024-03-10T00:20:31.065Z,100254.53
2024-03-10T00:22:59.240Z,100242.13
2024-03-10T00:25:28.039Z,100244.13
2024-03-10T00:27:56.150Z,100241.31
2024-03-10T00:30:24.936Z,100242.56
2024-03-10T00:32:53.079Z,100241.91
2024-03-10T00:35:21.349Z,100247.16
2024-03-10T00:37:49.598Z,100244.56
2024-03-10T00:40:17.683Z,100244.34
2024-03-10T00:42:46.132Z,100243.63
2024-03-10T00:45:15.462Z,100249.38
2024-03-10T00:47:44.439Z,100244.06
2024-03-10T00:50:12.436Z,100240.53
2024-03-10T00:52:42.452Z,100245.66
2024-03-10T00:55:12.173Z,100251.78
2024-03-10T00:57:42.211Z,100246.66
2024-03-10T01:00:12.013Z,100241.19
2024-03-10T01:02:41.371Z,100239.41
2024-03-10T01:05:11.063Z,100236.94
2024-03-10T01:07:39.963Z,100229.66
2024-03-10T01:10:10.354Z,100229.41
2024-03-10T01:12:41.208Z,100233.28
2024-03-10T01:15:09.358Z,100232.22
2024-03-10T01:17:37.548Z,100232.22
2024-03-10T01:20:07.913Z,100221.53
2024-03-10T01:22:36.138Z,100219.84
2024-03-10T01:25:05.746Z,100217.47
2024-03-10T01:27:34.067Z,100223.16
2024-03-10T01:30:02.019Z,100223.94
2024-03-10T01:32:31.139Z,100214.69
2024-03-10T01:34:59.098Z,100211.84
2024-03-10T01:37:27.123Z,100211.59
2024-03-10T01:39:54.824Z,100214.06
2024-03-10T01:42:22.925Z,100209.59
2024-03-10T01:44:50.607Z,100217.06
2024-03-10T01:47:18.752Z,100211.88
2024-03-10T01:49:46.673Z,100217.88
2024-03-10T01:52:14.745Z,100218.34
2024-03-10T01:54:43.101Z,100222.97
2024-03-10T01:57:11.821Z,100213.78
2024-03-10T01:59:39.821Z,100220.28
2024-03-10T02:02:08.221Z,100218.44
2024-03-10T02:04:38.929Z,100222.44
2024-03-10T02:07:07.428Z,100219.84
2024-03-10T02:09:38.917Z,100217.25
2024-03-10T02:12:08.022Z,100223.31
2024-03-10T02:14:35.853Z,100216.47
2024-03-10T02:17:04.884Z,100215.00
2024-03-10T02:19:32.790Z,100218.38
2024-03-10T02:22:00.946Z,100220.66
2024-03-10T02:24:35.101Z,100214.63
2024-03-10T02:27:04.211Z,100219.50
2024-03-10T02:29:44.984Z,100213.16
2024-03-10T02:32:31.849Z,100216.56
2024-03-10T02:35:18.014Z,100216.06
2024-03-10T02:38:04.419Z,100217.69
2024-03-10T02:40:50.796Z,100225.50
2024-03-10T02:43:37.397Z,100217.78
2024-03-10T02:46:23.834Z,100214.00
2024-03-10T02:48:51.923Z,100222.50
2024-03-10T02:51:19.736Z,100217.16
2024-03-10T02:53:50.386Z,100225.34
2024-03-10T02:56:21.760Z,100226.66
2024-03-10T02:58:49.821Z,100230.78
2024-03-10T03:01:19.884Z,100235.63
2024-03-10T03:03:48.077Z,100230.72
2024-03-10T03:06:15.850Z,100226.81
2024-03-10T03:08:44.230Z,100222.69
2024-03-10T03:11:12.036Z,100227.97
2024-03-10T03:13:40.102Z,100223.50
2024-03-10T03:16:11.079Z,100223.66
2024-03-10T03:18:41.547Z,100219.69
2024-03-10T03:21:09.334Z,100224.66
2024-03-10T03:23:37.794Z,100230.09
2024-03-10T03:26:05.686Z,100231.97
2024-03-10T03:28:34.126Z,100242.00
2024-03-10T03:31:01.904Z,100236.16
2024-03-10T03:33:29.873Z,100239.84
2024-03-10T03:35:58.062Z,100235.88
2024-03-10T03:38:26.238Z,100237.44
2024-03-10T03:40:54.017Z,100236.66
2024-03-10T03:43:22.117Z,100231.16
2024-03-10T03:45:51.085Z,100220.59
2024-03-10T03:48:20.061Z,100221.72
2024-03-10T03:50:48.009Z,100218.97
2024-03-10T03:53:16.090Z,100221.44
2024-03-10T03:55:43.821Z,100222.00
2024-03-10T03:58:11.802Z,100212.75
2024-03-10T04:00:39.491Z,100217.03
2024-03-10T04:03:07.644Z,100216.16
2024-03-10T04:05:35.460Z,100214.22
2024-03-10T04:08:03.594Z,100214.06
2024-03-10T04:10:31.355Z,100209.19
2024-03-10T04:12:59.290Z,100208.44
2024-03-10T04:15:27.022Z,100202.53
2024-03-10T04:17:55.084Z,100200.06
2024-03-10T04:20:22.839Z,100203.31
2024-03-10T04:22:50.889Z,100211.03
2024-03-10T04:25:18.702Z,100192.56
2024-03-10T04:27:47.284Z,100195.81
2024-03-10T04:30:15.128Z,100198.91
2024-03-10T04:32:43.188Z,100198.91
2024-03-10T04:35:11.862Z,100202.50
2024-03-10T04:37:40.082Z,100201.44
2024-03-10T04:40:11.074Z,100199.50
2024-03-10T04:42:39.464Z,100193.00
2024-03-10T04:45:12.796Z,100192.63
2024-03-10T04:47:41.024Z,100195.06
2024-03-10T04:50:10.310Z,100193.06
2024-03-10T04:52:38.847Z,100189.38
2024-03-10T04:55:07.078Z,100188.41
2024-03-10T04:57:35.207Z,100191.94
2024-03-10T05:00:04.521Z,100192.31
2024-03-10T05:02:33.087Z,100191.00
2024-03-10T05:05:04.689Z,100195.94
2024-03-10T05:07:32.770Z,100201.13
2024-03-10T05:10:00.480Z,100199.53
2024-03-10T05:12:28.512Z,100195.63
2024-03-10T05:14:56.342Z,100193.91
2024-03-10T05:17:24.750Z,100194.97
2024-03-10T05:19:52.502Z,100198.88
2024-03-10T05:22:20.563Z,100201.81
2024-03-10T05:24:48.445Z,100201.28
2024-03-10T05:27:17.175Z,100197.56
2024-03-10T05:29:45.030Z,100204.75
2024-03-10T05:32:13.177Z,100204.50
2024-03-10T05:34:41.144Z,100208.44
2024-03-10T05:37:09.340Z,100205.94
2024-03-10T05:39:37.623Z,100205.44
2024-03-10T05:42:06.490Z,100203.66
2024-03-10T05:44:37.524Z,100199.13
2024-03-10T05:47:05.943Z,100201.41
2024-03-10T05:49:34.018Z,100202.50
2024-03-10T05:52:02.131Z,100204.53
2024-03-10T05:54:29.982Z,100204.38
2024-03-10T05:57:00.154Z,100200.78
2024-03-10T05:59:28.018Z,100206.28
2024-03-10T06:01:56.445Z,100212.03
2024-03-10T06:04:24.234Z,100200.47
2024-03-10T06:06:52.967Z,100200.66
2024-03-10T06:09:20.795Z,100210.22
2024-03-10T06:11:48.943Z,100204.47
2024-03-10T06:14:17.609Z,100206.50
2024-03-10T06:16:46.375Z,100208.97
2024-03-10T06:19:34.427Z,100213.91
2024-03-10T06:22:21.306Z,100212.28
2024-03-10T06:25:07.868Z,100205.38
2024-03-10T06:27:36.083Z,100207.13
2024-03-10T06:30:04.103Z,100209.03
2024-03-10T06:32:32.335Z,100209.69
2024-03-10T06:35:00.303Z,100199.97
2024-03-10T06:37:28.363Z,100205.97
2024-03-10T06:39:56.095Z,100201.28
2024-03-10T06:42:24.257Z,100192.97
2024-03-10T06:44:52.153Z,100189.03
2024-03-10T06:47:22.055Z,100194.00
2024-03-10T06:49:49.850Z,100196.41
2024-03-10T06:52:18.078Z,100189.03
2024-03-10T06:54:45.850Z,100185.72
2024-03-10T06:57:13.959Z,100185.91
2024-03-10T06:59:45.544Z,100179.06
2024-03-10T07:02:13.861Z,100179.84
2024-03-10T07:04:42.012Z,100189.13
2024-03-10T07:07:10.118Z,100192.28
2024-03-10T07:09:37.948Z,100188.22
2024-03-10T07:12:07.666Z,100183.13
2024-03-10T07:14:36.528Z,100194.97
2024-03-10T07:17:05.255Z,100191.63
2024-03-10T07:19:33.769Z,100180.66
2024-03-10T07:22:01.943Z,100185.06
2024-03-10T07:24:29.704Z,100185.03
2024-03-10T07:26:57.710Z,100189.16
2024-03-10T07:29:25.523Z,100189.81
2024-03-10T07:31:54.194Z,100189.16
2024-03-10T07:34:21.893Z,100189.91
2024-03-10T07:36:49.937Z,100189.63
2024-03-10T07:39:17.771Z,100184.16
2024-03-10T07:41:45.921Z,100184.38
2024-03-10T07:44:13.740Z,100193.31
2024-03-10T07:46:41.799Z,100198.00
2024-03-10T07:49:11.350Z,100190.19
2024-03-10T07:51:39.795Z,100188.69
2024-03-10T07:54:07.603Z,100198.66
2024-03-10T07:56:35.720Z,100193.63
2024-03-10T07:59:03.559Z,100191.69
2024-03-10T08:01:31.753Z,100194.16
2024-03-10T08:03:59.454Z,100202.00
2024-03-10T08:06:27.532Z,100194.38
2024-03-10T08:08:55.394Z,100189.94
2024-03-10T08:11:23.740Z,100187.09
2024-03-10T08:13:51.677Z,100199.47
2024-03-10T08:16:20.951Z,100198.00
2024-03-10T08:18:51.070Z,100193.72
2024-03-10T08:21:19.960Z,100196.69
2024-03-10T08:23:47.866Z,100195.00
2024-03-10T08:26:16.010Z,100191.53
2024-03-10T08:28:44.009Z,100183.38
2024-03-10T08:31:14.179Z,100187.47
2024-03-10T08:33:42.027Z,100184.09
2024-03-10T08:36:10.555Z,100176.56
2024-03-10T08:38:38.699Z,100177.38
2024-03-10T08:41:06.758Z,100178.22
2024-03-10T08:43:35.999Z,100172.66
2024-03-10T08:46:04.419Z,100168.53
2024-03-10T08:48:32.291Z,100170.44
2024-03-10T08:51:00.593Z,100190.44
2024-03-10T08:53:28.755Z,100179.38
2024-03-10T08:55:57.075Z,100172.31
2024-03-10T08:58:24.849Z,100187.16
2024-03-10T09:00:53.379Z,100167.91
2024-03-10T09:03:23.041Z,100171.47
2024-03-10T09:05:51.227Z,100172.94
2024-03-10T09:08:18.993Z,100166.06
2024-03-10T09:10:53.652Z,100159.03
2024-03-10T09:13:30.546Z,100159.25
2024-03-10T09:15:58.575Z,100161.22
2024-03-10T09:18:27.112Z,100160.00
2024-03-10T09:20:55.446Z,100162.41
2024-03-10T09:23:23.219Z,100159.72
2024-03-10T09:25:51.842Z,100156.34
2024-03-10T09:28:22.058Z,100158.63
2024-03-10T09:30:50.165Z,100152.97
2024-03-10T09:33:23.612Z,100161.13
2024-03-10T09:35:56.760Z,100160.00
2024-03-10T09:38:24.799Z,100152.13
2024-03-10T09:40:52.857Z,100135.81
2024-03-10T09:43:23.170Z,100153.34
2024-03-10T09:45:53.473Z,100151.41
2024-03-10T09:48:23.543Z,100142.53
2024-03-10T09:50:53.556Z,100152.34
2024-03-10T09:53:21.805Z,100140.28
2024-03-10T09:55:50.316Z,100135.66
2024-03-10T09:58:30.078Z,100136.19
2024-03-10T10:01:13.530Z,100126.56
2024-03-10T10:03:51.366Z,100125.56
2024-03-10T10:06:21.550Z,100125.75
2024-03-10T10:08:56.498Z,100113.53
2024-03-10T10:11:25.221Z,100120.13
2024-03-10T10:14:16.176Z,100122.28
2024-03-10T10:17:00.424Z,100119.31
2024-03-10T10:19:33.402Z,100124.34
2024-03-10T10:22:07.124Z,100101.16
2024-03-10T10:24:35.141Z,100123.00
2024-03-10T10:27:04.428Z,100129.41
2024-03-10T10:29:48.747Z,100121.72
2024-03-10T10:32:21.900Z,100113.59
2024-03-10T10:34:53.586Z,100105.69
2024-03-10T10:37:22.312Z,100114.22
2024-03-10T10:39:50.332Z,100105.41
2024-03-10T10:42:29.727Z,100113.81
2024-03-10T10:45:03.005Z,100109.16
2024-03-10T10:47:33.056Z,100107.56
2024-03-10T10:50:01.519Z,100107.75
2024-03-10T10:52:29.916Z,100106.03
2024-03-10T10:54:57.728Z,100109.41
2024-03-10T10:57:26.905Z,100106.50
2024-03-10T10:59:54.711Z,100103.44
2024-03-10T11:02:22.923Z,100104.75
2024-03-10T11:04:54.689Z,100124.53
2024-03-10T11:07:29.083Z,100106.06
2024-03-10T11:09:56.882Z,100085.75
2024-03-10T11:12:25.590Z,100110.16
2024-03-10T11:14:55.117Z,100099.44
2024-03-10T11:17:24.974Z,100100.50
2024-03-10T11:19:54.357Z,100094.63
2024-03-10T11:22:26.867Z,100084.44
2024-03-10T11:25:09.858Z,100083.75
2024-03-10T11:27:46.349Z,100096.50
2024-03-10T11:30:49.407Z,100080.84
2024-03-10T11:33:25.392Z,100081.50
2024-03-10T11:35:56.641Z,100083.78
2024-03-10T11:38:24.864Z,100087.13
2024-03-10T11:41:01.305Z,100080.19
2024-03-10T11:43:30.212Z,100076.66
2024-03-10T11:45:58.555Z,100066.28
2024-03-10T11:48:28.703Z,100062.94
2024-03-10T11:50:56.726Z,100072.38
2024-03-10T11:53:28.134Z,100066.25
2024-03-10T11:56:02.452Z,100084.31
2024-03-10T11:58:31.201Z,100084.38
2024-03-10T12:01:03.726Z,100062.91
2024-03-10T12:03:34.500Z,100064.69
2024-03-10T12:06:03.657Z,100051.69
2024-03-10T12:08:39.701Z,100068.06
2024-03-10T12:11:07.886Z,100059.59
2024-03-10T12:13:42.350Z,100039.78
2024-03-10T12:16:12.248Z,100053.72
2024-03-10T12:18:43.265Z,100041.81
2024-03-10T12:21:19.635Z,100041.25
2024-03-10T12:23:48.189Z,100042.19
2024-03-10T12:26:17.407Z,100042.22
2024-03-10T12:28:49.128Z,100037.94
2024-03-10T12:31:18.365Z,100028.59
2024-03-10T12:33:47.900Z,100037.16
2024-03-10T12:36:15.731Z,100022.59
2024-03-10T12:38:44.972Z,100035.63
2024-03-10T12:41:15.347Z,100032.97
2024-03-10T12:43:43.638Z,100035.53
2024-03-10T12:46:16.438Z,100037.94
2024-03-10T12:48:49.060Z,100046.63
2024-03-10T12:51:17.949Z,100050.81
2024-03-10T12:53:46.587Z,100039.53
2024-03-10T12:56:15.049Z,100037.78
2024-03-10T12:58:44.943Z,100041.16
2024-03-10T13:01:13.079Z,100036.78
2024-03-10T13:03:40.960Z,100025.63
2024-03-10T13:06:09.067Z,100033.28
2024-03-10T13:08:36.893Z,100020.22
2024-03-10T13:11:06.856Z,100019.31
2024-03-10T13:13:34.660Z,100022.75
2024-03-10T13:16:02.896Z,100031.31
2024-03-10T13:18:30.632Z,100012.53
2024-03-10T13:20:59.133Z,100019.34
2024-03-10T13:23:26.972Z,100059.78
2024-03-10T13:25:55.015Z,100020.22
2024-03-10T13:28:24.059Z,100015.16
2024-03-10T13:30:52.260Z,100025.53
2024-03-10T13:33:20.368Z,100025.56
2024-03-10T13:35:50.561Z,100029.13
2024-03-10T13:38:21.350Z,100022.28
2024-03-10T13:40:50.747Z,100018.09
2024-03-10T13:43:18.948Z,100012.09
2024-03-10T13:45:46.970Z,100001.78
2024-03-10T13:48:14.840Z,100012.28
2024-03-10T13:50:44.130Z,100017.50
2024-03-10T13:53:12.975Z,100013.25
2024-03-10T13:55:41.808Z,100004.66
2024-03-10T13:58:13.443Z,100016.69
2024-03-10T14:00:41.992Z,100008.94
2024-03-10T14:03:09.776Z,100022.78
2024-03-10T14:05:38.406Z,100029.66
2024-03-10T14:08:07.372Z,100037.41
2024-03-10T14:10:35.550Z,100028.81
2024-03-10T14:13:04.442Z,100035.66
2024-03-10T14:15:41.007Z,100014.19
2024-03-10T14:18:09.734Z,100029.84
2024-03-10T14:20:38.327Z,100022.13
2024-03-10T14:23:07.045Z,100016.97
2024-03-10T14:25:35.241Z,100017.84
2024-03-10T14:28:03.360Z,100023.06
2024-03-10T14:30:32.864Z,100034.22
2024-03-10T14:33:04.339Z,100028.19
2024-03-10T14:35:32.971Z,100023.94
2024-03-10T14:38:00.977Z,100020.56
2024-03-10T14:40:30.399Z,100012.81
2024-03-10T14:42:59.543Z,100010.31
2024-03-10T14:45:30.657Z,100011.22
2024-03-10T14:47:58.957Z,100010.41
2024-03-10T14:50:33.765Z,100010.38
2024-03-10T14:53:02.579Z,100005.31
2024-03-10T14:55:31.127Z,100009.69
2024-03-10T14:58:01.718Z,100013.13
2024-03-10T15:00:38.845Z,100006.31
2024-03-10T15:03:12.000Z,100002.06
2024-03-10T15:05:43.644Z,100014.09
2024-03-10T15:08:17.214Z,100002.91
2024-03-10T15:10:47.652Z,100005.53
2024-03-10T15:13:17.723Z,100002.13
2024-03-10T15:15:45.937Z,100007.28
2024-03-10T15:18:14.338Z,100001.34
2024-03-10T15:20:47.840Z,100008.28
2024-03-10T15:23:21.235Z,100010.03
2024-03-10T15:25:51.447Z,100006.56
2024-03-10T15:28:21.287Z,100009.19
2024-03-10T15:30:49.934Z,100018.63
2024-03-10T15:33:18.193Z,100009.22
2024-03-10T15:35:46.567Z,100006.63
2024-03-10T15:38:15.321Z,100007.47
2024-03-10T15:40:44.482Z,100010.94
2024-03-10T15:43:13.955Z,100021.22
2024-03-10T15:45:43.807Z,100015.22
2024-03-10T15:48:12.735Z,100024.66
2024-03-10T15:50:40.943Z,100034.94
2024-03-10T15:53:11.518Z,100034.09
2024-03-10T15:55:39.833Z,100031.53
2024-03-10T15:58:08.879Z,100037.50
2024-03-10T16:00:39.900Z,100036.66
2024-03-10T16:03:12.434Z,100046.91
2024-03-10T16:05:50.973Z,100037.50
2024-03-10T16:08:22.408Z,100040.91
2024-03-10T16:10:51.383Z,100047.75
2024-03-10T16:13:31.870Z,100039.19
2024-03-10T16:16:02.243Z,100046.88
2024-03-10T16:18:33.417Z,100047.75
2024-03-10T16:21:03.103Z,100047.72
2024-03-10T16:23:31.242Z,100043.44
2024-03-10T16:25:59.352Z,100052.81
2024-03-10T16:28:27.507Z,100053.69
2024-03-10T16:30:55.368Z,100057.97
2024-03-10T16:33:23.377Z,100060.50
2024-03-10T16:35:51.157Z,100060.47
2024-03-10T16:38:19.414Z,100063.03
2024-03-10T16:40:47.731Z,100061.34
2024-03-10T16:43:17.938Z,100069.06
2024-03-10T16:45:49.465Z,100061.28
2024-03-10T16:48:18.347Z,100069.88
2024-03-10T16:50:46.374Z,100069.91
2024-03-10T16:53:16.453Z,100074.13
2024-03-10T16:55:47.773Z,100069.81
2024-03-10T16:58:20.660Z,100087.78
2024-03-10T17:00:48.733Z,100080.06
2024-03-10T17:03:16.938Z,100074.03
2024-03-10T17:05:45.135Z,100081.75
2024-03-10T17:08:15.041Z,100081.81
2024-03-10T17:10:45.403Z,100083.50
2024-03-10T17:13:15.299Z,100082.66
2024-03-10T17:15:43.671Z,100086.00
2024-03-10T17:18:14.294Z,100088.56
2024-03-10T17:20:42.813Z,100090.28
2024-03-10T17:23:13.899Z,100091.22
2024-03-10T17:25:41.904Z,100087.69
2024-03-10T17:28:10.016Z,100094.47
2024-03-10T17:30:37.729Z,100100.44
2024-03-10T17:33:07.042Z,100096.19
2024-03-10T17:35:35.595Z,100099.53
2024-03-10T17:38:05.708Z,100101.31
2024-03-10T17:40:33.868Z,100101.31
2024-03-10T17:43:01.915Z,100093.59
2024-03-10T17:45:29.707Z,100096.97
2024-03-10T17:47:57.805Z,100102.09
2024-03-10T17:50:26.106Z,100092.72
2024-03-10T17:52:54.232Z,100090.09
2024-03-10T17:55:22.105Z,100099.56
2024-03-10T17:57:50.157Z,100096.88
2024-03-10T18:00:23.633Z,100082.34
2024-03-10T18:02:51.857Z,100084.88
2024-03-10T18:05:19.758Z,100088.13
2024-03-10T18:07:52.325Z,100088.03
2024-03-10T18:10:24.013Z,100090.69
2024-03-10T18:12:52.528Z,100089.69
2024-03-10T18:15:26.762Z,100096.53
2024-03-10T18:17:54.965Z,100092.13
2024-03-10T18:20:26.118Z,100099.78
2024-03-10T18:22:54.740Z,100099.78
2024-03-10T18:25:22.892Z,100104.03
2024-03-10T18:27:51.929Z,100110.66
2024-03-10T18:30:19.756Z,100110.66
2024-03-10T18:32:47.945Z,100117.47
2024-03-10T18:35:18.830Z,100119.19
2024-03-10T18:37:46.927Z,100121.13
2024-03-10T18:40:15.807Z,100130.56
2024-03-10T18:42:44.914Z,100119.28
2024-03-10T18:45:14.539Z,100132.88
2024-03-10T18:47:43.129Z,100126.94
2024-03-10T18:50:12.956Z,100131.38
2024-03-10T18:52:42.657Z,100128.88
2024-03-10T18:55:13.008Z,100147.69
2024-03-10T18:57:42.300Z,100149.28
2024-03-10T19:00:13.272Z,100137.38
2024-03-10T19:02:42.798Z,100148.47
2024-03-10T19:05:12.619Z,100141.66
2024-03-10T19:07:42.260Z,100147.72
2024-03-10T19:10:11.286Z,100151.78
2024-03-10T19:12:46.157Z,100162.84
2024-03-10T19:15:15.555Z,100156.19
2024-03-10T19:17:44.870Z,100161.19
2024-03-10T19:20:19.301Z,100162.06
2024-03-10T19:22:56.034Z,100158.75
2024-03-10T19:25:26.905Z,100153.56
2024-03-10T19:27:55.313Z,100161.28
2024-03-10T19:30:23.410Z,100163.69
2024-03-10T19:32:51.914Z,100161.84
2024-03-10T19:35:23.046Z,100165.91
2024-03-10T19:37:52.248Z,100163.34
2024-03-10T19:40:20.705Z,100171.97
2024-03-10T19:42:50.282Z,100169.13
2024-03-10T19:45:22.252Z,100181.09
2024-03-10T19:47:50.984Z,100172.66
2024-03-10T19:50:19.483Z,100181.00
2024-03-10T19:52:50.344Z,100180.09
2024-03-10T19:55:18.655Z,100188.69
2024-03-10T19:57:46.821Z,100180.03
2024-03-10T20:00:17.880Z,100178.13
2024-03-10T20:02:47.603Z,100179.53
2024-03-10T20:05:16.183Z,100189.06
2024-03-10T20:07:48.777Z,100188.25
2024-03-10T20:10:19.626Z,100186.53
2024-03-10T20:12:50.798Z,100192.41
2024-03-10T20:15:19.534Z,100186.34
2024-03-10T20:17:50.536Z,100193.78
2024-03-10T20:20:26.460Z,100196.97
2024-03-10T20:22:56.287Z,100189.06
2024-03-10T20:25:25.964Z,100195.44
2024-03-10T20:27:57.211Z,100189.19
2024-03-10T20:30:26.386Z,100196.03
2024-03-10T20:32:54.500Z,100197.59
2024-03-10T20:35:22.549Z,100192.63
2024-03-10T20:37:50.733Z,100197.59
2024-03-10T20:40:19.308Z,100194.63
2024-03-10T20:42:48.725Z,100192.16
2024-03-10T20:45:17.015Z,100193.75
2024-03-10T20:47:47.705Z,100191.28
2024-03-10T20:50:23.543Z,100183.56
2024-03-10T20:52:53.689Z,100200.41
2024-03-10T20:55:22.272Z,100187.81
2024-03-10T20:57:50.335Z,100188.53
2024-03-10T21:00:23.489Z,100182.59
2024-03-10T21:02:52.091Z,100190.91
2024-03-10T21:05:22.965Z,100183.44
2024-03-10T21:07:53.757Z,100179.22
2024-03-10T21:10:23.588Z,100189.19
2024-03-10T21:12:52.913Z,100174.75
2024-03-10T21:15:23.828Z,100175.72
2024-03-10T21:17:53.804Z,100180.13
2024-03-10T21:20:24.317Z,100174.13
2024-03-10T21:22:53.409Z,100173.31
2024-03-10T21:25:24.270Z,100175.63
2024-03-10T21:27:52.478Z,100177.19
2024-03-10T21:30:20.369Z,100181.25
2024-03-10T21:32:48.774Z,100181.88
2024-03-10T21:35:19.316Z,100173.53
2024-03-10T21:37:48.929Z,100182.03
2024-03-10T21:40:17.725Z,100185.53
2024-03-10T21:42:45.923Z,100188.38
2024-03-10T21:45:13.698Z,100184.25
2024-03-10T21:47:45.249Z,100191.69
2024-03-10T21:50:15.567Z,100191.09
2024-03-10T21:52:45.286Z,100197.50
2024-03-10T21:55:13.964Z,100184.69
2024-03-10T21:57:42.002Z,100194.09
2024-03-10T22:00:16.730Z,100181.31
2024-03-10T22:02:46.617Z,100192.72
2024-03-10T22:05:15.574Z,100179.84
2024-03-10T22:07:44.533Z,100187.31
2024-03-10T22:10:15.043Z,100183.97
2024-03-10T22:12:47.044Z,100195.69
2024-03-10T22:15:19.070Z,100187.41
2024-03-10T22:17:51.128Z,100189.91
2024-03-10T22:20:27.199Z,100187.03
2024-03-10T22:22:56.951Z,100189.56
2024-03-10T22:25:28.178Z,100184.44
2024-03-10T22:27:57.648Z,100187.69
2024-03-10T22:30:28.704Z,100190.88
2024-03-10T22:32:58.220Z,100192.16
2024-03-10T22:35:27.161Z,100187.22
2024-03-10T22:37:56.907Z,100181.81
2024-03-10T22:40:25.549Z,100185.63
2024-03-10T22:42:55.263Z,100182.59
2024-03-10T22:45:30.621Z,100171.56
2024-03-10T22:48:01.854Z,100181.25
2024-03-10T22:50:30.674Z,100186.41
2024-03-10T22:53:01.766Z,100189.13
2024-03-10T22:55:30.546Z,100186.81
2024-03-10T22:57:58.340Z,100182.69
2024-03-10T23:00:26.567Z,100186.41
2024-03-10T23:03:08.224Z,100174.78
2024-03-10T23:05:37.501Z,100175.19
2024-03-10T23:08:10.107Z,100172.72
2024-03-10T23:10:39.953Z,100174.06
2024-03-10T23:13:09.856Z,100160.47
2024-03-10T23:15:38.197Z,100181.25
2024-03-10T23:18:07.938Z,100173.38
2024-03-10T23:20:39.382Z,100167.06
2024-03-10T23:23:07.723Z,100171.97
2024-03-10T23:25:36.369Z,100166.06
2024-03-10T23:28:07.783Z,100185.47
2024-03-10T23:30:39.035Z,100183.28
2024-03-10T23:33:07.173Z,100177.06
2024-03-10T23:35:35.449Z,100177.19
2024-03-10T23:38:05.312Z,100170.56
2024-03-10T23:40:33.966Z,100162.13
2024-03-10T23:43:02.170Z,100165.22
2024-03-10T23:45:30.991Z,100162.56
2024-03-10T23:47:58.959Z,100157.03
2024-03-10T23:50:28.098Z,100157.19
2024-03-10T23:52:58.906Z,100150.94
2024-03-10T23:55:44.781Z,100155.91
2024-03-10T23:58:13.354Z,100163.19
